sensor_id;sensor_type;location;lat;lon;timestamp;pressure;altitude;pressure_sealevel;temperature;humidity
83697;BME280;73677;54.530;18.484;2024-01-15T00:01:45;98217.31;;;1.60;84.00
83697;BME280;73677;54.530;18.484;2024-01-15T00:04:14;98212.63;;;1.67;83.26
83697;BME280;73677;54.530;18.484;2024-01-15T00:06:44;98209.19;;;1.60;82.47
83697;BME280;73677;54.530;18.484;2024-01-15T00:09:13;98205.91;;;1.58;83.16
83697;BME280;73677;54.530;18.484;2024-01-15T00:11:42;98210.03;;;1.60;83.41
83697;BME280;73677;54.530;18.484;2024-01-15T00:14:10;98206.00;;;1.63;82.00
83697;BME280;73677;54.530;18.484;2024-01-15T00:16:41;98206.03;;;1.51;81.67
83697;BME280;73677;54.530;18.484;2024-01-15T00:19:09;98190.84;;;1.50;82.89
83697;BME280;73677;54.530;18.484;2024-01-15T00:21:38;98188.13;;;1.50;82.60
83697;BME280;73677;54.530;18.484;2024-01-15T00:24:08;98178.84;;;1.46;82.25
83697;BME280;73677;54.530;18.484;2024-01-15T00:26:37;98180.84;;;1.51;81.72
83697;BME280;73677;54.530;18.484;2024-01-15T00:29:06;98163.53;;;1.40;82.31
83697;BME280;73677;54.530;18.484;2024-01-15T00:31:35;98140.94;;;1.46;81.68
83697;BME280;73677;54.530;18.484;2024-01-15T00:34:04;98150.47;;;1.49;81.47
83697;BME280;73677;54.530;18.484;2024-01-15T00:36:33;98152.00;;;1.56;81.93
83697;BME280;73677;54.530;18.484;2024-01-15T00:39:02;98144.94;;;1.55;82.38
83697;BME280;73677;54.530;18.484;2024-01-15T00:41:34;98141.53;;;1.60;81.69
83697;BME280;73677;54.530;18.484;2024-01-15T00:44:02;98126.09;;;1.60;81.36
83697;BME280;73677;54.530;18.484;2024-01-15T00:46:31;98129.88;;;1.59;81.90
83697;BME280;73677;54.530;18.484;2024-01-15T00:49:00;98131.16;;;1.45;81.81
83697;BME280;73677;54.530;18.484;2024-01-15T00:51:29;98126.69;;;1.51;82.13
83697;BME280;73677;54.530;18.484;2024-01-15T00:58:21;98120.91;;;1.47;82.32
83697;BME280;73677;54.530;18.484;2024-01-15T01:00:50;98118.91;;;1.43;82.66
83697;BME280;73677;54.530;18.484;2024-01-15T01:03:19;98116.81;;;1.45;81.88
83697;BME280;73677;54.530;18.484;2024-01-15T01:05:48;98112.34;;;1.50;80.76
83697;BME280;73677;54.530;18.484;2024-01-15T01:08:17;98105.03;;;1.62;81.04
83697;BME280;73677;54.530;18.484;2024-01-15T01:10:45;98105.38;;;1.54;81.44
83697;BME280;73677;54.530;18.484;2024-01-15T01:13:14;98097.28;;;1.54;82.14
83697;BME280;73677;54.530;18.484;2024-01-15T01:15:44;98089.97;;;1.55;81.49
83697;BME280;73677;54.530;18.484;2024-01-15T01:18:13;98081.97;;;1.60;80.97
83697;BME280;73677;54.530;18.484;2024-01-15T01:20:42;98084.22;;;1.51;81.24
83697;BME280;73677;54.530;18.484;2024-01-15T01:23:10;98092.44;;;1.56;81.73
83697;BME280;73677;54.530;18.484;2024-01-15T01:25:39;98070.78;;;1.56;80.90
83697;BME280;73677;54.530;18.484;2024-01-15T01:28:08;98083.13;;;1.64;80.60
83697;BME280;73677;54.530;18.484;2024-01-15T01:30:36;98067.94;;;1.63;80.43
83697;BME280;73677;54.530;18.484;2024-01-15T01:33:31;98061.75;;;1.51;80.95
83697;BME280;73677;54.530;18.484;2024-01-15T01:36:00;98075.50;;;1.49;81.05
83697;BME280;73677;54.530;18.484;2024-01-15T01:38:28;98068.81;;;1.40;80.70
83697;BME280;73677;54.530;18.484;2024-01-15T01:40:57;98053.03;;;1.49;80.55
83697;BME280;73677;54.530;18.484;2024-01-15T01:43:26;98053.25;;;1.47;80.60
83697;BME280;73677;54.530;18.484;2024-01-15T01:45:56;98040.69;;;1.41;80.90
83697;BME280;73677;54.530;18.484;2024-01-15T01:48:25;98050.19;;;1.44;80.79
83697;BME280;73677;54.530;18.484;2024-01-15T01:50:58;98042.69;;;1.46;81.09
83697;BME280;73677;54.530;18.484;2024-01-15T01:53:27;98043.97;;;1.43;81.16
83697;BME280;73677;54.530;18.484;2024-01-15T01:55:58;98006.22;;;1.13;81.12
83697;BME280;73677;54.530;18.484;2024-01-15T01:58:27;98030.66;;;1.42;80.53
83697;BME280;73677;54.530;18.484;2024-01-15T02:00:57;98029.84;;;1.41;81.18
83697;BME280;73677;54.530;18.484;2024-01-15T02:03:26;98007.59;;;1.51;81.29
83697;BME280;73677;54.530;18.484;2024-01-15T02:05:58;98011.81;;;1.47;81.49
83697;BME280;73677;54.530;18.484;2024-01-15T02:08:28;98014.91;;;1.39;82.88
83697;BME280;73677;54.530;18.484;2024-01-15T02:10:57;98013.84;;;1.28;83.34
83697;BME280;73677;54.530;18.484;2024-01-15T02:13:26;98007.41;;;1.29;83.84
83697;BME280;73677;54.530;18.484;2024-01-15T02:15:54;97997.63;;;1.16;84.58
83697;BME280;73677;54.530;18.484;2024-01-15T02:18:23;97983.41;;;1.09;85.06
83697;BME280;73677;54.530;18.484;2024-01-15T02:20:52;97978.34;;;1.01;85.79
83697;BME280;73677;54.530;18.484;2024-01-15T02:23:22;97981.28;;;1.00;86.20
83697;BME280;73677;54.530;18.484;2024-01-15T02:25:51;97983.41;;;0.98;86.31
83697;BME280;73677;54.530;18.484;2024-01-15T02:28:19;97986.94;;;1.10;85.80
83697;BME280;73677;54.530;18.484;2024-01-15T02:30:48;97983.03;;;1.06;86.21
83697;BME280;73677;54.530;18.484;2024-01-15T02:33:17;97973.53;;;1.03;86.47
83697;BME280;73677;54.530;18.484;2024-01-15T02:35:46;97967.88;;;1.05;86.73
83697;BME280;73677;54.530;18.484;2024-01-15T02:38:17;97960.47;;;1.00;86.33
83697;BME280;73677;54.530;18.484;2024-01-15T02:40:47;97958.97;;;0.93;87.09
83697;BME280;73677;54.530;18.484;2024-01-15T02:43:15;97952.63;;;0.99;87.29
83697;BME280;73677;54.530;18.484;2024-01-15T02:45:46;97945.22;;;0.94;87.25
83697;BME280;73677;54.530;18.484;2024-01-15T02:48:15;97947.44;;;1.09;87.04
83697;BME280;73677;54.530;18.484;2024-01-15T02:50:44;97966.69;;;1.01;87.44
83697;BME280;73677;54.530;18.484;2024-01-15T02:53:13;97943.53;;;1.05;87.23
83697;BME280;73677;54.530;18.484;2024-01-15T02:55:42;97941.78;;;0.87;88.66
83697;BME280;73677;54.530;18.484;2024-01-15T02:58:11;97940.75;;;0.88;88.93
83697;BME280;73677;54.530;18.484;2024-01-15T03:00:40;97932.25;;;0.84;89.43
83697;BME280;73677;54.530;18.484;2024-01-15T03:03:09;97922.03;;;0.87;89.72
83697;BME280;73677;54.530;18.484;2024-01-15T03:05:38;97915.09;;;0.91;89.41
83697;BME280;73677;54.530;18.484;2024-01-15T03:08:08;97914.75;;;0.75;90.08
83697;BME280;73677;54.530;18.484;2024-01-15T03:10:37;97901.00;;;0.77;90.18
83697;BME280;73677;54.530;18.484;2024-01-15T03:13:05;97897.03;;;0.68;90.30
83697;BME280;73677;54.530;18.484;2024-01-15T03:15:35;97885.13;;;0.69;90.27
83697;BME280;73677;54.530;18.484;2024-01-15T03:18:04;97893.72;;;0.77;90.29
83697;BME280;73677;54.530;18.484;2024-01-15T03:20:33;97883.03;;;0.71;90.83
83697;BME280;73677;54.530;18.484;2024-01-15T03:23:01;97892.69;;;0.67;91.21
83697;BME280;73677;54.530;18.484;2024-01-15T03:25:30;97886.56;;;0.71;91.31
83697;BME280;73677;54.530;18.484;2024-01-15T03:28:02;97873.59;;;0.73;90.76
83697;BME280;73677;54.530;18.484;2024-01-15T03:38:56;97867.16;;;0.74;90.84
83697;BME280;73677;54.530;18.484;2024-01-15T03:41:25;97867.03;;;0.69;91.85
83697;BME280;73677;54.530;18.484;2024-01-15T03:43:54;97862.78;;;0.73;91.05
83697;BME280;73677;54.530;18.484;2024-01-15T03:46:22;97856.13;;;0.64;92.20
83697;BME280;73677;54.530;18.484;2024-01-15T03:48:51;97829.09;;;0.53;91.81
83697;BME280;73677;54.530;18.484;2024-01-15T03:51:20;97842.38;;;0.66;91.52
83697;BME280;73677;54.530;18.484;2024-01-15T03:53:49;97852.47;;;0.70;91.75
83697;BME280;73677;54.530;18.484;2024-01-15T03:56:19;97844.13;;;0.72;92.19
83697;BME280;73677;54.530;18.484;2024-01-15T03:58:47;97850.97;;;0.63;92.08
83697;BME280;73677;54.530;18.484;2024-01-15T04:01:16;97822.91;;;0.52;91.92
83697;BME280;73677;54.530;18.484;2024-01-15T04:03:44;97834.38;;;0.71;92.05
83697;BME280;73677;54.530;18.484;2024-01-15T04:06:13;97824.28;;;0.66;91.94
83697;BME280;73677;54.530;18.484;2024-01-15T04:08:42;97824.50;;;0.65;92.35
83697;BME280;73677;54.530;18.484;2024-01-15T04:11:11;97826.16;;;0.66;92.20
83697;BME280;73677;54.530;18.484;2024-01-15T04:13:41;97821.91;;;0.70;91.83
83697;BME280;73677;54.530;18.484;2024-01-15T04:16:09;97823.91;;;0.74;91.95
83697;BME280;73677;54.530;18.484;2024-01-15T04:18:38;97820.47;;;0.79;91.70
83697;BME280;73677;54.530;18.484;2024-01-15T04:21:06;97809.94;;;0.77;91.82
83697;BME280;73677;54.530;18.484;2024-01-15T04:23:35;97804.41;;;0.72;91.96
83697;BME280;73677;54.530;18.484;2024-01-15T04:26:06;97796.75;;;0.69;92.27
83697;BME280;73677;54.530;18.484;2024-01-15T04:28:35;97796.41;;;0.77;92.00
83697;BME280;73677;54.530;18.484;2024-01-15T04:31:05;97790.19;;;0.77;91.60
83697;BME280;73677;54.530;18.484;2024-01-15T04:33:34;97796.03;;;0.74;91.49
83697;BME280;73677;54.530;18.484;2024-01-15T04:36:04;97760.75;;;0.52;92.47
83697;BME280;73677;54.530;18.484;2024-01-15T04:38:33;97789.25;;;0.71;92.53
83697;BME280;73677;54.530;18.484;2024-01-15T04:41:03;97781.97;;;0.72;92.35
83697;BME280;73677;54.530;18.484;2024-01-15T04:43:32;97788.75;;;0.74;92.61
83697;BME280;73677;54.530;18.484;2024-01-15T04:46:01;97789.25;;;0.71;92.50
83697;BME280;73677;54.530;18.484;2024-01-15T04:48:31;97784.53;;;0.78;92.37
83697;BME280;73677;54.530;18.484;2024-01-15T04:51:00;97785.00;;;0.75;92.39
83697;BME280;73677;54.530;18.484;2024-01-15T04:53:29;97787.25;;;0.78;92.34
83697;BME280;73677;54.530;18.484;2024-01-15T04:55:58;97759.03;;;0.74;92.10
83697;BME280;73677;54.530;18.484;2024-01-15T04:58:26;97774.28;;;0.80;92.64
83697;BME280;73677;54.530;18.484;2024-01-15T05:00:55;97776.88;;;0.87;91.99
83697;BME280;73677;54.530;18.484;2024-01-15T05:03:24;97779.22;;;0.83;92.04
83697;BME280;73677;54.530;18.484;2024-01-15T05:05:54;97776.03;;;0.87;91.95
83697;BME280;73677;54.530;18.484;2024-01-15T05:08:22;97780.38;;;0.88;91.91
83697;BME280;73677;54.530;18.484;2024-01-15T05:10:51;97770.63;;;0.87;91.71
83697;BME280;73677;54.530;18.484;2024-01-15T05:13:19;97768.66;;;0.82;92.11
83697;BME280;73677;54.530;18.484;2024-01-15T05:15:48;97774.88;;;0.82;91.55
83697;BME280;73677;54.530;18.484;2024-01-15T05:18:17;97773.56;;;0.85;91.17
83697;BME280;73677;54.530;18.484;2024-01-15T05:20:46;97752.66;;;0.80;91.09
83697;BME280;73677;54.530;18.484;2024-01-15T05:23:16;97760.22;;;0.78;90.24
83697;BME280;73677;54.530;18.484;2024-01-15T05:25:45;97749.84;;;0.75;90.44
83697;BME280;73677;54.530;18.484;2024-01-15T05:28:14;97771.47;;;0.75;89.90
83697;BME280;73677;54.530;18.484;2024-01-15T05:30:43;97767.97;;;0.75;90.15
83697;BME280;73677;54.530;18.484;2024-01-15T05:33:11;97765.97;;;0.70;90.04
83697;BME280;73677;54.530;18.484;2024-01-15T05:35:40;97749.56;;;0.60;90.35
83697;BME280;73677;54.530;18.484;2024-01-15T05:38:09;97757.88;;;0.70;90.21
83697;BME280;73677;54.530;18.484;2024-01-15T05:40:39;97756.91;;;0.76;90.56
83697;BME280;73677;54.530;18.484;2024-01-15T05:43:07;97754.09;;;0.71;90.08
83697;BME280;73677;54.530;18.484;2024-01-15T05:45:37;97762.13;;;0.66;89.85
83697;BME280;73677;54.530;18.484;2024-01-15T05:48:06;97758.47;;;0.61;89.11
83697;BME280;73677;54.530;18.484;2024-01-15T05:50:35;97760.25;;;0.55;89.03
83697;BME280;73677;54.530;18.484;2024-01-15T05:53:04;97752.03;;;0.50;88.92
83697;BME280;73677;54.530;18.484;2024-01-15T05:55:32;97739.16;;;0.40;88.69
83697;BME280;73677;54.530;18.484;2024-01-15T05:58:02;97739.72;;;0.42;88.91
83697;BME280;73677;54.530;18.484;2024-01-15T06:00:31;97744.78;;;0.39;88.81
83697;BME280;73677;54.530;18.484;2024-01-15T06:03:02;97745.50;;;0.34;87.98
83697;BME280;73677;54.530;18.484;2024-01-15T06:05:32;97744.56;;;0.29;88.34
83697;BME280;73677;54.530;18.484;2024-01-15T06:08:01;97728.72;;;0.21;88.13
83697;BME280;73677;54.530;18.484;2024-01-15T06:10:30;97742.13;;;0.16;88.67
83697;BME280;73677;54.530;18.484;2024-01-15T06:12:59;97739.16;;;0.06;89.22
83697;BME280;73677;54.530;18.484;2024-01-15T06:15:29;97726.75;;;-0.07;89.21
83697;BME280;73677;54.530;18.484;2024-01-15T06:17:57;97737.19;;;0.01;89.33
83697;BME280;73677;54.530;18.484;2024-01-15T06:20:26;97732.03;;;-0.01;88.54
83697;BME280;73677;54.530;18.484;2024-01-15T06:22:55;97728.72;;;-0.03;88.14
83697;BME280;73677;54.530;18.484;2024-01-15T06:25:24;97733.66;;;0.00;88.09
83697;BME280;73677;54.530;18.484;2024-01-15T06:27:52;97730.72;;;0.02;88.14
83697;BME280;73677;54.530;18.484;2024-01-15T06:30:21;97725.81;;;-0.01;87.92
83697;BME280;73677;54.530;18.484;2024-01-15T06:32:52;97730.50;;;0.04;87.46
83697;BME280;73677;54.530;18.484;2024-01-15T06:35:21;97723.56;;;0.08;87.70
83697;BME280;73677;54.530;18.484;2024-01-15T06:37:51;97716.28;;;0.08;87.55
83697;BME280;73677;54.530;18.484;2024-01-15T06:40:20;97705.16;;;-0.07;88.26
83697;BME280;73677;54.530;18.484;2024-01-15T06:42:48;97722.03;;;0.12;87.76
83697;BME280;73677;54.530;18.484;2024-01-15T06:45:17;97720.38;;;0.11;87.90
83697;BME280;73677;54.530;18.484;2024-01-15T06:47:46;97705.47;;;0.08;87.34
83697;BME280;73677;54.530;18.484;2024-01-15T06:50:17;97707.25;;;0.14;87.33
83697;BME280;73677;54.530;18.484;2024-01-15T06:52:46;97715.81;;;0.11;87.61
83697;BME280;73677;54.530;18.484;2024-01-15T06:55:14;97701.25;;;0.12;87.12
83697;BME280;73677;54.530;18.484;2024-01-15T06:57:43;97695.41;;;0.04;87.52
83697;BME280;73677;54.530;18.484;2024-01-15T07:00:13;97705.72;;;0.07;87.42
83697;BME280;73677;54.530;18.484;2024-01-15T07:02:42;97697.28;;;0.03;87.49
83697;BME280;73677;54.530;18.484;2024-01-15T07:05:12;97674.53;;;-0.13;87.50
83697;BME280;73677;54.530;18.484;2024-01-15T07:07:42;97691.06;;;0.03;87.76
83697;BME280;73677;54.530;18.484;2024-01-15T07:10:11;97688.69;;;0.06;87.46
83697;BME280;73677;54.530;18.484;2024-01-15T07:12:41;97684.72;;;0.09;87.41
83697;BME280;73677;54.530;18.484;2024-01-15T07:15:10;97657.50;;;-0.02;87.92
83697;BME280;73677;54.530;18.484;2024-01-15T07:17:39;97674.13;;;0.19;87.38
83697;BME280;73677;54.530;18.484;2024-01-15T07:20:09;97687.13;;;0.22;87.60
83697;BME280;73677;54.530;18.484;2024-01-15T07:22:38;97681.38;;;0.30;86.96
83697;BME280;73677;54.530;18.484;2024-01-15T07:25:08;97679.25;;;0.32;87.63
83697;BME280;73677;54.530;18.484;2024-01-15T07:27:37;97671.13;;;0.32;87.75
83697;BME280;73677;54.530;18.484;2024-01-15T07:30:07;97663.53;;;0.29;87.93
83697;BME280;73677;54.530;18.484;2024-01-15T07:32:36;97672.34;;;0.24;88.30
83697;BME280;73677;54.530;18.484;2024-01-15T07:35:05;97668.22;;;0.22;87.94
83697;BME280;73677;54.530;18.484;2024-01-15T07:37:34;97670.94;;;0.22;87.87
83697;BME280;73677;54.530;18.484;2024-01-15T07:40:03;97669.63;;;0.36;87.89
83697;BME280;73677;54.530;18.484;2024-01-15T07:42:35;97663.63;;;0.34;87.95
83697;BME280;73677;54.530;18.484;2024-01-15T07:45:06;97659.03;;;0.34;88.28
83697;BME280;73677;54.530;18.484;2024-01-15T07:47:34;97661.03;;;0.39;87.27
83697;BME280;73677;54.530;18.484;2024-01-15T07:50:03;97664.66;;;0.45;86.84
83697;BME280;73677;54.530;18.484;2024-01-15T07:52:33;97659.59;;;0.48;86.57
83697;BME280;73677;54.530;18.484;2024-01-15T07:55:02;97661.56;;;0.53;86.45
83697;BME280;73677;54.530;18.484;2024-01-15T07:57:32;97669.53;;;0.59;86.40
83697;BME280;73677;54.530;18.484;2024-01-15T08:00:04;97662.84;;;0.62;85.81
83697;BME280;73677;54.530;18.484;2024-01-15T08:02:33;97663.03;;;0.72;85.70
83697;BME280;73677;54.530;18.484;2024-01-15T08:05:04;97659.69;;;0.81;85.50
83697;BME280;73677;54.530;18.484;2024-01-15T08:07:33;97648.38;;;0.84;85.06
83697;BME280;73677;54.530;18.484;2024-01-15T08:10:02;97654.88;;;0.83;84.62
83697;BME280;73677;54.530;18.484;2024-01-15T08:12:31;97651.09;;;0.84;84.96
83697;BME280;73677;54.530;18.484;2024-01-15T08:15:00;97611.72;;;0.60;84.96
83697;BME280;73677;54.530;18.484;2024-01-15T08:17:30;97635.69;;;0.85;84.55
83697;BME280;73677;54.530;18.484;2024-01-15T08:19:59;97640.28;;;1.01;84.40
83697;BME280;73677;54.530;18.484;2024-01-15T08:22:28;97634.34;;;0.99;84.22
83697;BME280;73677;54.530;18.484;2024-01-15T08:24:59;97643.91;;;1.07;83.03
83697;BME280;73677;54.530;18.484;2024-01-15T08:27:29;97635.50;;;1.20;82.81
83697;BME280;73677;54.530;18.484;2024-01-15T08:29:58;97622.28;;;1.40;81.56
83697;BME280;73677;54.530;18.484;2024-01-15T08:32:26;97631.94;;;1.53;81.03
83697;BME280;73677;54.530;18.484;2024-01-15T08:34:56;97628.09;;;1.49;80.83
83697;BME280;73677;54.530;18.484;2024-01-15T08:37:25;97632.59;;;1.43;81.04
83697;BME280;73677;54.530;18.484;2024-01-15T08:39:54;97626.44;;;1.48;80.53
83697;BME280;73677;54.530;18.484;2024-01-15T08:42:23;97637.34;;;1.36;81.21
83697;BME280;73677;54.530;18.484;2024-01-15T08:44:52;97645.56;;;1.24;81.52
83697;BME280;73677;54.530;18.484;2024-01-15T08:47:20;97586.13;;;0.79;81.79
83697;BME280;73677;54.530;18.484;2024-01-15T08:49:49;97654.25;;;1.10;82.69
83697;BME280;73677;54.530;18.484;2024-01-15T08:52:19;97632.41;;;1.00;84.04
83697;BME280;73677;54.530;18.484;2024-01-15T08:54:48;97644.72;;;0.91;85.39
83697;BME280;73677;54.530;18.484;2024-01-15T08:57:17;97640.34;;;0.90;85.59
83697;BME280;73677;54.530;18.484;2024-01-15T08:59:46;97627.84;;;0.83;86.19
83697;BME280;73677;54.530;18.484;2024-01-15T09:02:15;97643.97;;;0.78;85.85
83697;BME280;73677;54.530;18.484;2024-01-15T09:04:44;97618.31;;;0.81;84.15
83697;BME280;73677;54.530;18.484;2024-01-15T09:07:13;97623.66;;;0.93;84.05
83697;BME280;73677;54.530;18.484;2024-01-15T09:09:43;97613.09;;;1.08;82.29
83697;BME280;73677;54.530;18.484;2024-01-15T09:12:12;97611.19;;;1.42;81.45
83697;BME280;73677;54.530;18.484;2024-01-15T09:14:43;97618.53;;;1.24;81.04
83697;BME280;73677;54.530;18.484;2024-01-15T09:17:11;97613.44;;;2.48;77.48
83697;BME280;73677;54.530;18.484;2024-01-15T09:19:40;97612.59;;;3.28;73.91
83697;BME280;73677;54.530;18.484;2024-01-15T09:22:10;97604.34;;;2.86;74.17
83697;BME280;73677;54.530;18.484;2024-01-15T09:24:40;97596.81;;;3.25;72.77
83697;BME280;73677;54.530;18.484;2024-01-15T09:27:10;97571.88;;;4.17;68.99
83697;BME280;73677;54.530;18.484;2024-01-15T09:29:39;97578.84;;;5.67;62.73
83697;BME280;73677;54.530;18.484;2024-01-15T09:32:09;97583.72;;;5.85;62.33
83697;BME280;73677;54.530;18.484;2024-01-15T09:34:38;97580.81;;;3.61;68.02
83697;BME280;73677;54.530;18.484;2024-01-15T09:37:07;97617.28;;;2.31;75.65
83697;BME280;73677;54.530;18.484;2024-01-15T09:39:45;97616.53;;;1.53;79.30
83697;BME280;73677;54.530;18.484;2024-01-15T09:42:17;97619.22;;;1.53;80.77
83697;BME280;73677;54.530;18.484;2024-01-15T09:44:48;97615.06;;;1.46;82.60
83697;BME280;73677;54.530;18.484;2024-01-15T09:47:17;97621.94;;;1.37;81.77
83697;BME280;73677;54.530;18.484;2024-01-15T09:49:47;97615.22;;;1.39;81.90
83697;BME280;73677;54.530;18.484;2024-01-15T09:52:19;97611.09;;;1.53;82.69
83697;BME280;73677;54.530;18.484;2024-01-15T09:54:48;97603.00;;;1.53;82.07
83697;BME280;73677;54.530;18.484;2024-01-15T09:57:19;97603.97;;;1.47;82.77
83697;BME280;73677;54.530;18.484;2024-01-15T09:59:48;97605.94;;;1.52;82.62
83697;BME280;73677;54.530;18.484;2024-01-15T10:02:17;97628.44;;;1.19;84.50
83697;BME280;73677;54.530;18.484;2024-01-15T10:04:47;97603.59;;;1.05;84.54
83697;BME280;73677;54.530;18.484;2024-01-15T10:07:16;97606.03;;;1.07;84.76
83697;BME280;73677;54.530;18.484;2024-01-15T10:09:46;97585.31;;;1.29;83.64
83697;BME280;73677;54.530;18.484;2024-01-15T10:12:15;97583.34;;;1.80;80.63
83697;BME280;73677;54.530;18.484;2024-01-15T10:14:46;97563.91;;;3.54;74.26
83697;BME280;73677;54.530;18.484;2024-01-15T10:17:16;97559.00;;;5.36;67.22
83697;BME280;73677;54.530;18.484;2024-01-15T10:19:46;97529.53;;;5.68;63.18
83697;BME280;73677;54.530;18.484;2024-01-15T10:22:17;97539.41;;;5.34;64.40
83697;BME280;73677;54.530;18.484;2024-01-15T10:24:46;97548.09;;;3.46;68.70
83697;BME280;73677;54.530;18.484;2024-01-15T10:27:15;97556.34;;;2.87;72.26
83697;BME280;73677;54.530;18.484;2024-01-15T10:29:46;97546.78;;;2.26;75.27
83697;BME280;73677;54.530;18.484;2024-01-15T10:32:14;97556.84;;;1.82;76.59
83697;BME280;73677;54.530;18.484;2024-01-15T10:34:43;97551.44;;;1.43;78.04
83697;BME280;73677;54.530;18.484;2024-01-15T10:37:12;97561.41;;;1.59;79.34
83697;BME280;73677;54.530;18.484;2024-01-15T10:39:41;97579.53;;;1.59;80.04
83697;BME280;73677;54.530;18.484;2024-01-15T10:42:10;97569.56;;;1.26;82.17
83697;BME280;73677;54.530;18.484;2024-01-15T10:44:39;97592.34;;;0.97;84.93
83697;BME280;73677;54.530;18.484;2024-01-15T10:47:09;97586.88;;;0.92;85.59
83697;BME280;73677;54.530;18.484;2024-01-15T10:49:38;97576.53;;;0.72;86.07
83697;BME280;73677;54.530;18.484;2024-01-15T10:52:07;97592.28;;;0.92;86.28
83697;BME280;73677;54.530;18.484;2024-01-15T10:54:37;97589.16;;;1.16;85.58
83697;BME280;73677;54.530;18.484;2024-01-15T10:57:05;97589.25;;;1.21;85.27
83697;BME280;73677;54.530;18.484;2024-01-15T10:59:34;97586.63;;;1.26;86.04
83697;BME280;73677;54.530;18.484;2024-01-15T11:02:04;97571.69;;;1.41;85.48
83697;BME280;73677;54.530;18.484;2024-01-15T11:04:34;97572.09;;;1.33;84.22
83697;BME280;73677;54.530;18.484;2024-01-15T11:07:05;97568.94;;;1.19;84.55
83697;BME280;73677;54.530;18.484;2024-01-15T11:09:34;97568.94;;;1.57;84.33
83697;BME280;73677;54.530;18.484;2024-01-15T11:12:09;97562.56;;;2.07;81.49
83697;BME280;73677;54.530;18.484;2024-01-15T11:14:44;97569.25;;;1.78;81.24
83697;BME280;73677;54.530;18.484;2024-01-15T11:17:14;97555.81;;;1.66;81.15
83697;BME280;73677;54.530;18.484;2024-01-15T11:19:46;97537.09;;;1.64;80.89
83697;BME280;73677;54.530;18.484;2024-01-15T11:22:48;97565.00;;;1.65;80.36
83697;BME280;73677;54.530;18.484;2024-01-15T11:25:18;97559.41;;;1.33;80.56
83697;BME280;73677;54.530;18.484;2024-01-15T11:27:48;97550.69;;;1.48;82.03
83697;BME280;73677;54.530;18.484;2024-01-15T11:30:19;97549.00;;;1.63;81.20
83697;BME280;73677;54.530;18.484;2024-01-15T11:32:48;97543.47;;;2.19;80.64
83697;BME280;73677;54.530;18.484;2024-01-15T11:35:18;97514.72;;;2.18;78.52
83697;BME280;73677;54.530;18.484;2024-01-15T11:37:57;97526.47;;;2.82;76.83
83697;BME280;73677;54.530;18.484;2024-01-15T11:40:39;97527.47;;;2.71;74.92
83697;BME280;73677;54.530;18.484;2024-01-15T11:43:10;97517.56;;;2.06;76.96
83697;BME280;73677;54.530;18.484;2024-01-15T11:45:40;97528.94;;;1.81;78.77
83697;BME280;73677;54.530;18.484;2024-01-15T11:48:11;97518.53;;;1.51;79.14
83697;BME280;73677;54.530;18.484;2024-01-15T11:50:43;97530.38;;;1.28;80.02
83697;BME280;73677;54.530;18.484;2024-01-15T11:53:18;97517.63;;;1.67;78.19
83697;BME280;73677;54.530;18.484;2024-01-15T11:55:51;97492.13;;;2.07;76.41
83697;BME280;73677;54.530;18.484;2024-01-15T11:58:20;97484.38;;;1.94;76.10
83697;BME280;73677;54.530;18.484;2024-01-15T12:00:51;97481.84;;;1.82;77.00
83697;BME280;73677;54.530;18.484;2024-01-15T12:03:21;97478.78;;;2.00;74.76
83697;BME280;73677;54.530;18.484;2024-01-15T12:05:51;97487.19;;;1.99;76.12
83697;BME280;73677;54.530;18.484;2024-01-15T12:08:24;97477.03;;;2.16;75.17
83697;BME280;73677;54.530;18.484;2024-01-15T12:10:54;97466.03;;;2.54;73.17
83697;BME280;73677;54.530;18.484;2024-01-15T12:13:24;97464.59;;;2.47;72.93
83697;BME280;73677;54.530;18.484;2024-01-15T12:15:54;97466.50;;;2.46;73.83
83697;BME280;73677;54.530;18.484;2024-01-15T12:18:26;97468.34;;;2.41;74.02
83697;BME280;73677;54.530;18.484;2024-01-15T12:20:57;97467.28;;;2.15;74.37
83697;BME280;73677;54.530;18.484;2024-01-15T12:23:26;97473.38;;;1.79;76.02
83697;BME280;73677;54.530;18.484;2024-01-15T12:25:55;97477.13;;;1.51;76.86
83697;BME280;73677;54.530;18.484;2024-01-15T12:28:27;97460.66;;;1.57;77.10
83697;BME280;73677;54.530;18.484;2024-01-15T12:30:56;97475.53;;;1.55;77.36
83697;BME280;73677;54.530;18.484;2024-01-15T12:33:27;97476.59;;;1.54;78.09
83697;BME280;73677;54.530;18.484;2024-01-15T12:35:58;97447.59;;;1.49;76.64
83697;BME280;73677;54.530;18.484;2024-01-15T12:38:28;97458.28;;;1.61;76.67
83697;BME280;73677;54.530;18.484;2024-01-15T12:40:57;97463.19;;;1.64;76.75
83697;BME280;73677;54.530;18.484;2024-01-15T12:43:25;97455.91;;;1.64;76.61
83697;BME280;73677;54.530;18.484;2024-01-15T12:45:54;97465.53;;;1.55;76.88
83697;BME280;73677;54.530;18.484;2024-01-15T12:48:23;97480.31;;;1.48;76.37
83697;BME280;73677;54.530;18.484;2024-01-15T12:50:52;97479.88;;;1.34;77.36
83697;BME280;73677;54.530;18.484;2024-01-15T12:53:22;97483.03;;;1.69;77.33
83697;BME280;73677;54.530;18.484;2024-01-15T12:55:51;97469.06;;;1.78;76.33
83697;BME280;73677;54.530;18.484;2024-01-15T12:58:19;97471.31;;;1.86;75.21
83697;BME280;73677;54.530;18.484;2024-01-15T13:00:48;97476.16;;;1.84;75.06
83697;BME280;73677;54.530;18.484;2024-01-15T13:03:17;97486.31;;;1.72;76.46
83697;BME280;73677;54.530;18.484;2024-01-15T13:05:46;97485.91;;;1.63;76.40
83697;BME280;73677;54.530;18.484;2024-01-15T13:08:16;97483.03;;;1.69;76.64
83697;BME280;73677;54.530;18.484;2024-01-15T13:10:46;97491.38;;;1.90;76.76
83697;BME280;73677;54.530;18.484;2024-01-15T13:13:15;97490.78;;;1.83;76.89
83697;BME280;73677;54.530;18.484;2024-01-15T13:15:44;97489.38;;;1.58;78.29
83697;BME280;73677;54.530;18.484;2024-01-15T13:18:13;97494.66;;;1.48;78.53
83697;BME280;73677;54.530;18.484;2024-01-15T13:20:42;97490.00;;;1.44;78.50
83697;BME280;73677;54.530;18.484;2024-01-15T13:23:10;97493.16;;;1.57;78.63
83697;BME280;73677;54.530;18.484;2024-01-15T13:25:39;97500.75;;;1.39;78.75